createdAt,value
2022-12-15T00:06:12.736Z,-2.00
2022-12-15T00:08:59.129Z,-2.00
2022-12-15T00:11:44.714Z,-2.00
2022-12-15T00:14:30.499Z,-2.00
2022-12-15T00:20:03.466Z,-2.10
2022-12-15T00:22:49.351Z,-2.10
2022-12-15T00:28:22.121Z,-2.20
2022-12-15T00:33:54.267Z,-2.20
2022-12-15T00:36:41.328Z,-2.20
2022-12-15T00:41:39.233Z,-2.20
2022-12-15T00:52:30.491Z,-2.20
2022-12-15T00:58:02.728Z,-2.20
2022-12-15T01:03:38.864Z,-2.20
2022-12-15T01:09:15.625Z,-2.20
2022-12-15T01:12:03.158Z,-2.20
2022-12-15T01:14:50.591Z,-2.10
2022-12-15T01:17:37.124Z,-2.10
2022-12-15T01:22:48.260Z,-3.80
2022-12-15T01:25:20.848Z,-2.20
2022-12-15T01:27:49.252Z,-2.30
2022-12-15T01:30:21.726Z,-2.30
2022-12-15T01:35:18.936Z,-2.20
2022-12-15T01:40:39.533Z,-2.20
2022-12-15T01:43:14.903Z,-2.30
2022-12-15T01:46:03.400Z,-2.20
2022-12-15T01:48:48.212Z,-2.20
2022-12-15T01:51:27.079Z,-2.20
2022-12-15T01:54:02.469Z,-2.20
2022-12-15T01:56:38.257Z,-2.20
2022-12-15T02:01:39.304Z,-0.30
2022-12-15T02:04:12.248Z,-2.20
2022-12-15T02:06:40.714Z,-2.10
2022-12-15T02:11:56.298Z,-2.40
2022-12-15T02:14:44.744Z,-2.40
2022-12-15T02:17:29.435Z,-2.40
2022-12-15T02:20:41.766Z,-2.40
2022-12-15T02:24:03.918Z,-2.50
2022-12-15T02:27:42.762Z,-2.50
2022-12-15T02:30:23.966Z,-2.50
2022-12-15T02:33:07.953Z,-2.50
2022-12-15T02:35:55.167Z,-2.50
2022-12-15T02:38:32.491Z,-2.50
2022-12-15T02:41:02.483Z,-2.50
2022-12-15T02:43:37.131Z,-2.50
2022-12-15T02:49:01.403Z,-2.50
2022-12-15T02:51:46.539Z,-2.60
2022-12-15T02:54:53.553Z,-2.50
2022-12-15T02:57:44.033Z,-2.60
2022-12-15T03:02:48.906Z,-2.50
2022-12-15T03:05:19.484Z,-2.60
2022-12-15T03:15:20.030Z,-4.50
2022-12-15T03:17:49.661Z,-2.60
2022-12-15T03:20:17.962Z,-2.60
2022-12-15T03:22:46.225Z,-2.60
2022-12-15T03:35:13.515Z,-2.50
2022-12-15T03:37:42.875Z,-2.60
2022-12-15T03:45:21.246Z,-2.60
2022-12-15T03:50:24.279Z,-2.60
2022-12-15T03:52:54.231Z,-2.60
2022-12-15T03:55:23.544Z,-2.60
2022-12-15T04:00:24.887Z,-2.70
2022-12-15T04:02:54.260Z,-2.60
2022-12-15T04:05:27.717Z,-2.40
2022-12-15T04:07:58.852Z,-2.50
2022-12-15T04:10:34.386Z,-2.50
2022-12-15T04:18:06.776Z,-2.60
2022-12-15T04:20:35.742Z,-2.60
2022-12-15T04:23:04.060Z,-2.60
2022-12-15T04:31:27.841Z,-2.50
2022-12-15T04:34:17.977Z,-2.50
2022-12-15T04:37:09.928Z,-0.30
2022-12-15T04:39:58.894Z,-2.60
2022-12-15T04:45:33.051Z,-2.60
2022-12-15T04:53:52.401Z,-2.60
2022-12-15T04:59:24.261Z,-2.40
2022-12-15T05:02:10.561Z,-2.50
2022-12-15T05:10:32.517Z,-2.60
2022-12-15T05:16:09.865Z,-2.70
2022-12-15T05:24:28.709Z,-2.60
2022-12-15T05:27:15.869Z,-2.60
2022-12-15T05:32:33.942Z,-2.70
2022-12-15T05:37:30.891Z,-2.70
2022-12-15T05:39:59.206Z,-2.60
2022-12-15T05:42:28.933Z,-2.70
2022-12-15T05:47:26.386Z,-2.70
2022-12-15T05:54:51.901Z,-2.70
2022-12-15T05:57:24.350Z,-2.70
2022-12-15T06:09:51.406Z,-2.70
2022-12-15T06:17:19.737Z,-2.70
2022-12-15T06:19:48.103Z,-2.70
2022-12-15T06:22:16.577Z,-2.70
2022-12-15T06:29:42.184Z,-2.60
2022-12-15T06:32:10.828Z,-2.60
2022-12-15T06:34:41.398Z,-2.70
2022-12-15T06:52:04.068Z,-2.70
2022-12-15T06:57:01.050Z,-2.50
2022-12-15T07:09:28.399Z,-2.60
2022-12-15T07:11:56.677Z,-2.60
2022-12-15T07:24:21.233Z,-2.50
2022-12-15T07:26:51.173Z,-2.50
2022-12-15T07:29:23.511Z,-2.50
2022-12-15T07:41:51.249Z,-2.30
2022-12-15T07:46:49.359Z,-2.30
2022-12-15T07:49:18.086Z,-2.20
2022-12-15T07:51:46.747Z,-2.20
2022-12-15T07:54:16.286Z,-2.20
2022-12-15T07:59:20.721Z,-2.10
2022-12-15T08:11:44.408Z,-1.90
2022-12-15T08:14:17.377Z,-1.90
2022-12-15T08:16:48.005Z,-1.80
2022-12-15T08:19:17.960Z,-1.80
2022-12-15T08:21:47.967Z,-1.80
2022-12-15T08:24:17.177Z,-0.50
2022-12-15T08:26:49.975Z,-1.70
2022-12-15T08:39:36.553Z,-1.50
2022-12-15T08:44:33.990Z,-1.30
2022-12-15T08:49:32.315Z,-1.30
2022-12-15T08:56:57.769Z,-1.10
2022-12-15T08:59:26.311Z,-1.20
2022-12-15T09:06:53.859Z,-0.90
2022-12-15T09:14:27.087Z,-0.70
2022-12-15T09:19:26.585Z,-0.80
2022-12-15T09:21:56.284Z,-0.60
2022-12-15T09:32:06.559Z,-0.10
2022-12-15T09:34:38.118Z,-0.10
2022-12-15T09:37:07.822Z,0.00
2022-12-15T09:39:37.511Z,0.10
2022-12-15T09:42:06.220Z,0.10
2022-12-15T09:49:56.615Z,0.10
2022-12-15T09:52:31.250Z,-0.20
2022-12-15T09:57:45.438Z,-0.60
2022-12-15T10:00:22.453Z,-0.60
2022-12-15T10:03:22.993Z,-0.60
2022-12-15T10:06:20.028Z,-0.60
2022-12-15T10:08:57.157Z,-0.60
2022-12-15T10:11:55.766Z,-0.60
2022-12-15T10:14:34.172Z,-0.50
2022-12-15T10:17:21.390Z,-0.30
2022-12-15T10:20:03.914Z,-0.30
2022-12-15T10:22:37.715Z,-0.30
2022-12-15T10:25:25.341Z,-0.50
2022-12-15T10:28:25.507Z,-0.50
2022-12-15T10:31:01.263Z,-0.80
2022-12-15T10:33:36.393Z,-0.80
2022-12-15T10:36:12.452Z,-0.80
2022-12-15T10:38:46.214Z,-0.70
2022-12-15T10:41:23.593Z,-0.70
2022-12-15T10:46:47.003Z,-0.50
2022-12-15T10:49:26.559Z,-0.50
2022-12-15T10:52:00.184Z,-0.60
2022-12-15T10:54:35.792Z,-0.60
2022-12-15T10:57:21.023Z,-0.50
2022-12-15T11:02:34.766Z,-0.40
2022-12-15T11:05:06.652Z,-0.50
2022-12-15T11:07:39.771Z,-0.40
2022-12-15T11:10:21.201Z,-0.40
2022-12-15T11:13:10.568Z,-0.30
2022-12-15T11:18:24.422Z,-0.30
2022-12-15T11:21:01.727Z,-0.20
2022-12-15T11:23:50.278Z,-0.10
2022-12-15T11:26:33.142Z,0.00
2022-12-15T11:39:54.768Z,-0.10
2022-12-15T11:42:35.994Z,0.10
2022-12-15T11:45:19.812Z,0.10
2022-12-15T11:50:31.832Z,0.10
2022-12-15T11:55:58.849Z,0.20
2022-12-15T11:58:51.809Z,0.20
2022-12-15T12:01:57.052Z,0.10
2022-12-15T12:04:35.512Z,0.10
2022-12-15T12:07:16.830Z,0.10
2022-12-15T12:10:04.223Z,0.00
2022-12-15T12:12:44.912Z,0.00
2022-12-15T12:15:31.141Z,0.00
2022-12-15T12:18:12.761Z,0.00
2022-12-15T12:20:50.333Z,0.10
2022-12-15T12:23:28.742Z,0.20
2022-12-15T12:26:07.408Z,0.30
2022-12-15T12:28:46.670Z,0.20
2022-12-15T12:31:32.389Z,0.20
2022-12-15T12:34:13.474Z,0.30
2022-12-15T12:36:44.965Z,0.40
2022-12-15T12:39:24.408Z,0.30
2022-12-15T12:42:06.612Z,0.30
2022-12-15T12:44:38.620Z,0.10
2022-12-15T12:47:17.313Z,0.00
2022-12-15T12:49:51.414Z,-0.10
2022-12-15T12:52:28.499Z,-0.10
2022-12-15T12:55:03.201Z,0.00
2022-12-15T12:57:41.444Z,-0.10
2022-12-15T13:03:14.148Z,0.00
2022-12-15T13:05:46.679Z,0.00
2022-12-15T13:12:14.861Z,0.10
2022-12-15T13:14:51.948Z,0.00
2022-12-15T13:17:33.813Z,0.10
2022-12-15T13:20:30.973Z,0.10
2022-12-15T13:23:41.366Z,0.00
2022-12-15T13:26:20.543Z,0.10
2022-12-15T13:28:58.818Z,0.10
2022-12-15T13:31:41.837Z,0.10
2022-12-15T13:34:39.470Z,0.20
2022-12-15T13:37:46.718Z,0.20
2022-12-15T13:40:51.848Z,0.30
2022-12-15T13:43:43.670Z,0.30
2022-12-15T13:46:17.909Z,1.10
2022-12-15T13:51:39.094Z,0.30
2022-12-15T13:54:18.007Z,0.30
2022-12-15T13:56:56.217Z,0.30
2022-12-15T13:59:38.323Z,0.30
2022-12-15T14:02:26.511Z,0.20
2022-12-15T14:07:54.135Z,0.10
2022-12-15T14:10:28.551Z,0.10
2022-12-15T14:13:15.095Z,0.10
2022-12-15T14:18:30.350Z,0.10
2022-12-15T14:23:30.449Z,0.00
2022-12-15T14:26:07.353Z,0.00
2022-12-15T14:31:15.511Z,-0.10
2022-12-15T14:33:50.689Z,-0.10
2022-12-15T14:41:28.557Z,-0.20
2022-12-15T14:44:31.416Z,-0.20
2022-12-15T14:46:52.799Z,-0.20
2022-12-15T14:49:29.585Z,-0.20
2022-12-15T14:52:05.082Z,-0.20
2022-12-15T14:54:37.506Z,-0.30
2022-12-15T14:57:16.734Z,-0.30
2022-12-15T14:59:51.252Z,-0.30
2022-12-15T15:02:24.894Z,-0.30
2022-12-15T15:03:11.640Z,-0.70
2022-12-15T15:03:12.903Z,0.00
2022-12-15T15:05:03.244Z,-0.40
2022-12-15T15:07:33.463Z,-0.40
2022-12-15T15:10:04.265Z,-0.50
2022-12-15T15:12:45.508Z,-0.40
2022-12-15T15:20:28.557Z,-0.50
2022-12-15T15:23:19.463Z,-0.50
2022-12-15T15:25:53.956Z,0.70
2022-12-15T15:28:26.587Z,-0.50
2022-12-15T15:31:00.553Z,-0.50
2022-12-15T15:36:01.048Z,-0.60
2022-12-15T15:38:33.600Z,-0.60
2022-12-15T15:41:16.817Z,-0.70
2022-12-15T15:43:45.674Z,-0.60
2022-12-15T15:46:20.309Z,-0.70
2022-12-15T15:48:53.958Z,-0.70
2022-12-15T15:51:24.797Z,-0.70
2022-12-15T15:53:54.689Z,-0.50
2022-12-15T15:58:51.965Z,-0.80
2022-12-15T16:01:21.880Z,-0.90
2022-12-15T16:03:50.651Z,-0.90
2022-12-15T16:06:24.187Z,-1.00
2022-12-15T16:08:54.818Z,-1.00
2022-12-15T16:11:25.508Z,-1.00
2022-12-15T16:13:53.840Z,-1.00
2022-12-15T16:16:31.346Z,-0.90
2022-12-15T16:19:00.029Z,-0.90
2022-12-15T16:21:29.084Z,-0.90
2022-12-15T16:23:59.789Z,-1.00
2022-12-15T16:26:33.313Z,-0.90
2022-12-15T16:29:01.864Z,-0.90
2022-12-15T16:31:41.358Z,-0.90
2022-12-15T16:34:10.710Z,-1.00
2022-12-15T16:36:39.390Z,-1.00
2022-12-15T16:39:25.383Z,-1.00
2022-12-15T16:41:56.273Z,-1.00
2022-12-15T16:44:26.542Z,-1.00
2022-12-15T16:46:56.992Z,-1.10
2022-12-15T16:49:25.685Z,-1.10
2022-12-15T16:51:54.959Z,-1.10
2022-12-15T16:54:28.532Z,-1.10
2022-12-15T16:57:00.478Z,-1.30
2022-12-15T16:59:33.944Z,-1.10
2022-12-15T17:02:23.943Z,-1.10
2022-12-15T17:04:55.063Z,-1.10
2022-12-15T17:12:22.367Z,-1.00
2022-12-15T17:14:50.786Z,-1.10
2022-12-15T17:17:21.252Z,-1.10
2022-12-15T17:20:27.523Z,-1.20
2022-12-15T17:22:39.266Z,-1.00
2022-12-15T17:25:17.336Z,-1.00
2022-12-15T17:27:47.036Z,-1.00
2022-12-15T17:30:17.326Z,-0.90
2022-12-15T17:32:48.308Z,-1.10
2022-12-15T17:35:17.585Z,-1.10
2022-12-15T17:37:46.820Z,-2.00
2022-12-15T17:40:21.976Z,-1.10
2022-12-15T17:42:51.439Z,-1.10
2022-12-15T17:45:24.373Z,-1.10
2022-12-15T17:47:54.683Z,-1.10
2022-12-15T17:50:23.330Z,-1.10
2022-12-15T17:52:51.755Z,-1.10
2022-12-15T17:55:29.049Z,-1.10
2022-12-15T18:00:32.060Z,-1.10
2022-12-15T18:03:02.345Z,-2.90
2022-12-15T18:05:32.330Z,-1.00
2022-12-15T18:08:15.564Z,-1.00
2022-12-15T18:10:45.723Z,-1.00
2022-12-15T18:13:20.425Z,-0.90
2022-12-15T18:15:49.549Z,-0.90
2022-12-15T18:18:22.222Z,-0.90
2022-12-15T18:20:52.061Z,-0.90
2022-12-15T18:23:26.323Z,-0.90
2022-12-15T18:25:59.672Z,-0.90
2022-12-15T18:28:33.258Z,-0.90
2022-12-15T18:31:21.351Z,-0.80
2022-12-15T18:33:51.171Z,-0.80
2022-12-15T18:36:20.712Z,-0.50
2022-12-15T18:38:49.750Z,-0.80
2022-12-15T18:41:21.117Z,-0.70
2022-12-15T18:43:58.606Z,-0.80
2022-12-15T18:46:28.236Z,-0.80
2022-12-15T18:49:00.288Z,-0.10
2022-12-15T18:51:30.768Z,-1.20
2022-12-15T18:53:59.141Z,-0.80
2022-12-15T18:56:27.733Z,-0.80
2022-12-15T18:58:56.263Z,-1.80
2022-12-15T19:01:25.018Z,-0.70
2022-12-15T19:06:34.809Z,-0.80
2022-12-15T19:09:03.937Z,-0.80
2022-12-15T19:14:04.102Z,-0.80
2022-12-15T19:22:28.029Z,-0.70
2022-12-15T19:24:57.088Z,-0.70
2022-12-15T19:27:27.466Z,2.70
2022-12-15T19:29:56.579Z,-0.50
2022-12-15T19:32:26.768Z,-0.50
2022-12-15T19:39:58.956Z,-0.50
2022-12-15T19:42:33.392Z,-0.60
2022-12-15T19:47:31.306Z,-0.50
2022-12-15T19:49:59.730Z,-0.50
2022-12-15T19:52:29.827Z,-0.50
2022-12-15T19:54:58.679Z,-0.40
2022-12-15T19:59:56.052Z,-0.50
2022-12-15T20:02:24.567Z,0.20
2022-12-15T20:04:53.050Z,-0.50
2022-12-15T20:07:30.415Z,-4.20
2022-12-15T20:09:59.022Z,-0.60
2022-12-15T20:12:27.589Z,-0.50
2022-12-15T20:17:25.119Z,-0.40
2022-12-15T20:19:53.524Z,-0.40
2022-12-15T20:22:21.971Z,-0.50
2022-12-15T20:24:51.796Z,-0.50
2022-12-15T20:27:21.200Z,-0.50
2022-12-15T20:29:49.632Z,-0.40
2022-12-15T20:32:21.815Z,-0.40
2022-12-15T20:34:50.517Z,-0.50
2022-12-15T20:37:24.263Z,-0.40
2022-12-15T20:39:57.712Z,-0.50
2022-12-15T20:42:26.940Z,-0.30
2022-12-15T20:47:27.696Z,-0.40
2022-12-15T20:52:28.029Z,-0.40
2022-12-15T20:57:26.800Z,-0.40
2022-12-15T21:04:55.208Z,-0.40
2022-12-15T21:07:23.663Z,-0.40
2022-12-15T21:09:52.066Z,-0.40
2022-12-15T21:12:26.439Z,-0.30
2022-12-15T21:14:55.552Z,-0.40
2022-12-15T21:17:27.011Z,-0.30
2022-12-15T21:22:27.629Z,-0.20
2022-12-15T21:25:00.417Z,-0.30
2022-12-15T21:27:30.179Z,-0.40
2022-12-15T21:29:58.535Z,-0.40
2022-12-15T21:32:26.885Z,-0.40
2022-12-15T21:37:29.705Z,-0.40
2022-12-15T21:40:00.487Z,-0.40
2022-12-15T21:42:37.501Z,-0.40
2022-12-15T21:47:59.344Z,-0.10
2022-12-15T21:50:28.160Z,-0.40
2022-12-15T21:55:28.914Z,-0.60
2022-12-15T21:57:59.289Z,-0.50
2022-12-15T22:00:28.143Z,-0.50
2022-12-15T22:05:30.271Z,-0.50
2022-12-15T22:08:02.690Z,-0.50
2022-12-15T22:10:31.212Z,-0.50
2022-12-15T22:13:01.075Z,-0.60
2022-12-15T22:15:30.758Z,0.40
2022-12-15T22:17:59.600Z,-0.70
2022-12-15T22:20:28.004Z,-0.70
2022-12-15T22:22:56.574Z,-0.70
2022-12-15T22:25:26.889Z,-0.80
2022-12-15T22:30:27.978Z,-0.80
2022-12-15T22:35:27.659Z,-0.80
2022-12-15T22:40:26.238Z,-0.80
2022-12-15T22:42:58.858Z,-0.80
2022-12-15T22:45:29.137Z,-0.90
2022-12-15T22:47:57.869Z,-0.90
2022-12-15T22:50:27.955Z,-0.90
2022-12-15T22:52:56.315Z,-0.90
2022-12-15T22:55:25.426Z,0.70
2022-12-15T22:58:00.784Z,-0.90
2022-12-15T23:00:30.785Z,-0.90
2022-12-15T23:05:28.367Z,-0.90
2022-12-15T23:13:11.504Z,-1.00
2022-12-15T23:15:58.696Z,-0.90
2022-12-15T23:20:56.507Z,-1.10
2022-12-15T23:25:54.878Z,-1.10
2022-12-15T23:28:23.437Z,-1.10
2022-12-15T23:30:54.502Z,-1.10
2022-12-15T23:33:24.889Z,0.50
2022-12-15T23:35:54.991Z,-1.10
2022-12-15T23:38:23.822Z,-1.20
2022-12-15T23:40:54.738Z,-1.10
2022-12-15T23:43:24.981Z,-1.10
2022-12-15T23:46:00.289Z,-1.20
2022-12-15T23:48:32.583Z,-1.20
2022-12-15T23:51:06.883Z,-1.20
2022-12-15T23:53:35.611Z,-1.20
2022-12-15T23:56:11.312Z,-1.20
2022-12-15T23:58:41.367Z,-1.20
